createdAt,value
2022-09-04T00:00:08.758Z,16.00
2022-09-04T00:00:52.085Z,15.80
2022-09-04T00:01:44.913Z,15.80
2022-09-04T00:02:28.074Z,15.80
2022-09-04T00:03:18.667Z,15.80
2022-09-04T00:03:57.365Z,15.80
2022-09-04T00:04:41.631Z,15.80
2022-09-04T00:05:19.593Z,15.80
2022-09-04T00:05:56.421Z,15.80
2022-09-04T00:06:33.923Z,15.80
2022-09-04T00:07:15.245Z,15.80
2022-09-04T00:07:57.627Z,15.90
2022-09-04T00:08:47.386Z,15.80
2022-09-04T00:09:25.975Z,15.80
2022-09-04T00:10:09.555Z,15.80
2022-09-04T00:10:49.064Z,15.80
2022-09-04T00:11:36.100Z,15.80
2022-09-04T00:12:09.557Z,15.80
2022-09-04T00:12:49.025Z,15.70
2022-09-04T00:13:27.430Z,15.80
2022-09-04T00:14:03.366Z,15.80
2022-09-04T00:14:41.737Z,15.80
2022-09-04T00:15:19.778Z,15.90
2022-09-04T00:15:58.805Z,15.80
2022-09-04T00:16:43.043Z,15.80
2022-09-04T00:17:24.172Z,15.80
2022-09-04T00:18:02.516Z,15.80
2022-09-04T00:18:39.201Z,15.80
2022-09-04T00:19:21.578Z,15.80
2022-09-04T00:19:59.476Z,15.80
2022-09-04T00:20:39.032Z,15.80
2022-09-04T00:21:17.262Z,15.80
2022-09-04T00:21:53.185Z,15.80
2022-09-04T00:22:30.681Z,15.70
2022-09-04T00:23:09.825Z,15.80
2022-09-04T00:23:44.917Z,15.80
2022-09-04T00:24:18.954Z,15.80
2022-09-04T00:24:58.404Z,15.80
2022-09-04T00:25:38.827Z,15.80
2022-09-04T00:26:20.943Z,15.80
2022-09-04T00:27:03.687Z,15.80
2022-09-04T00:27:44.586Z,15.80
2022-09-04T00:28:29.769Z,15.80
2022-09-04T00:29:13.962Z,15.80
2022-09-04T00:29:55.074Z,15.80
2022-09-04T00:30:27.354Z,15.80
2022-09-04T00:31:07.864Z,15.80
2022-09-04T00:31:44.986Z,15.80
2022-09-04T00:32:25.782Z,15.80
2022-09-04T00:33:07.674Z,15.80
2022-09-04T00:33:49.302Z,15.80
2022-09-04T00:34:41.766Z,15.70
2022-09-04T00:35:17.126Z,15.80
2022-09-04T00:35:56.073Z,15.80
2022-09-04T00:36:29.343Z,15.80
2022-09-04T00:37:06.781Z,15.70
2022-09-04T00:37:43.955Z,15.70
2022-09-04T00:38:20.950Z,15.70
2022-09-04T00:38:57.609Z,15.70
2022-09-04T00:39:39.119Z,15.80
2022-09-04T00:40:22.297Z,15.80
2022-09-04T00:41:04.835Z,15.80
2022-09-04T00:41:45.972Z,15.70
2022-09-04T00:42:37.249Z,15.70
2022-09-04T00:43:56.996Z,15.70
2022-09-04T00:44:50.776Z,15.70
2022-09-04T00:45:37.023Z,15.70
2022-09-04T00:46:41.168Z,15.70
2022-09-04T00:47:48.600Z,15.70
2022-09-04T00:48:38.302Z,15.60
2022-09-04T00:49:42.143Z,15.60
2022-09-04T00:50:31.921Z,15.60
2022-09-04T00:51:17.436Z,15.50
2022-09-04T00:51:59.059Z,15.60
2022-09-04T00:52:46.596Z,15.60
2022-09-04T00:53:51.557Z,15.60
2022-09-04T00:54:45.992Z,15.60
2022-09-04T00:55:30.985Z,15.60
2022-09-04T00:56:26.843Z,15.50
2022-09-04T00:57:31.204Z,15.50
2022-09-04T00:58:30.822Z,15.50
2022-09-04T00:59:14.949Z,15.50
2022-09-04T01:00:03.853Z,15.50
2022-09-04T01:00:36.861Z,15.60
2022-09-04T01:01:15.812Z,15.60
2022-09-04T01:01:48.490Z,15.60
2022-09-04T01:02:30.440Z,15.60
2022-09-04T01:03:35.961Z,15.60
2022-09-04T01:04:31.637Z,15.60
2022-09-04T01:05:11.972Z,15.70
2022-09-04T01:06:10.817Z,15.70
2022-09-04T01:06:54.219Z,15.70
2022-09-04T01:07:43.772Z,15.80
2022-09-04T01:08:23.652Z,15.80
2022-09-04T01:09:22.394Z,15.80
2022-09-04T01:10:24.875Z,15.80
2022-09-04T01:11:13.385Z,15.80
2022-09-04T01:11:57.417Z,15.80
2022-09-04T01:12:38.610Z,15.80
2022-09-04T01:13:18.232Z,15.80
2022-09-04T01:14:01.748Z,15.80
2022-09-04T01:14:41.357Z,15.90
2022-09-04T01:15:20.437Z,15.90
2022-09-04T01:15:58.284Z,15.90
2022-09-04T01:16:36.892Z,15.90
2022-09-04T01:17:19.389Z,15.90
2022-09-04T01:18:00.301Z,15.90
2022-09-04T01:18:44.049Z,15.90
2022-09-04T01:19:31.081Z,15.90
2022-09-04T01:20:14.603Z,15.90
2022-09-04T01:21:10.684Z,15.90
2022-09-04T01:22:04.114Z,15.90
2022-09-04T01:22:59.198Z,15.90
2022-09-04T01:23:45.932Z,15.90
2022-09-04T01:24:53.929Z,15.90
2022-09-04T01:25:35.642Z,15.90
2022-09-04T01:26:15.898Z,15.90
2022-09-04T01:26:55.471Z,15.90
2022-09-04T01:27:31.085Z,15.90
2022-09-04T01:28:07.223Z,16.00
2022-09-04T01:28:55.992Z,16.00
2022-09-04T01:29:35.793Z,16.00
2022-09-04T01:30:11.576Z,16.00
2022-09-04T01:30:50.802Z,16.00
2022-09-04T01:31:31.703Z,16.00
2022-09-04T01:32:09.880Z,16.00
2022-09-04T01:33:06.464Z,16.10
2022-09-04T01:33:44.681Z,16.10
2022-09-04T01:34:30.342Z,16.00
2022-09-04T01:35:09.897Z,16.10
2022-09-04T01:35:49.589Z,16.10
2022-09-04T01:36:33.353Z,16.10
2022-09-04T01:37:28.732Z,16.10
2022-09-04T01:38:09.784Z,16.10
2022-09-04T01:38:50.882Z,16.10
2022-09-04T01:39:25.528Z,16.10
2022-09-04T01:40:10.055Z,16.00
2022-09-04T01:40:47.288Z,16.00
2022-09-04T01:41:25.377Z,16.10
2022-09-04T01:42:01.629Z,16.10
2022-09-04T01:42:43.262Z,16.10
2022-09-04T01:43:18.581Z,16.10
2022-09-04T01:43:51.835Z,16.10
2022-09-04T01:44:23.702Z,16.10
2022-09-04T01:44:56.490Z,16.10
2022-09-04T01:45:38.087Z,16.10
2022-09-04T01:46:37.518Z,16.00
2022-09-04T01:47:16.886Z,16.00
2022-09-04T01:47:55.712Z,16.00
2022-09-04T01:48:40.185Z,16.00
2022-09-04T01:49:20.954Z,16.00
2022-09-04T01:50:00.564Z,16.00
2022-09-04T01:50:32.875Z,16.00
2022-09-04T01:51:13.669Z,16.00
2022-09-04T01:51:55.546Z,16.00
2022-09-04T01:52:38.582Z,16.10
2022-09-04T01:53:13.196Z,16.10
2022-09-04T01:53:54.886Z,16.10
2022-09-04T01:54:51.000Z,16.10
2022-09-04T01:55:31.672Z,16.10
2022-09-04T01:56:13.596Z,16.10
2022-09-04T01:57:00.169Z,16.10
2022-09-04T01:57:49.317Z,16.10
2022-09-04T01:58:31.949Z,16.10
2022-09-04T01:59:11.569Z,16.10
2022-09-04T01:59:58.878Z,16.10
2022-09-04T02:00:35.896Z,16.10
2022-09-04T02:01:21.238Z,16.00
2022-09-04T02:01:58.288Z,16.20
2022-09-04T02:02:41.142Z,16.00
2022-09-04T02:03:22.519Z,16.00
2022-09-04T02:04:08.082Z,16.10
2022-09-04T02:04:48.041Z,16.10
2022-09-04T02:05:27.542Z,16.10
2022-09-04T02:06:08.482Z,16.10
2022-09-04T02:06:50.312Z,16.10
2022-09-04T02:07:29.038Z,16.10
2022-09-04T02:08:21.242Z,16.10
2022-09-04T02:09:16.933Z,16.10
2022-09-04T02:09:59.348Z,16.10
2022-09-04T02:10:39.164Z,16.10
2022-09-04T02:11:16.680Z,16.10
2022-09-04T02:11:59.843Z,16.10
2022-09-04T02:12:41.199Z,16.10
2022-09-04T02:13:22.246Z,16.10
2022-09-04T02:14:10.603Z,16.10
2022-09-04T02:14:56.854Z,16.10
2022-09-04T02:15:43.045Z,16.10
2022-09-04T02:16:26.405Z,16.10
2022-09-04T02:17:10.110Z,16.10
2022-09-04T02:17:51.036Z,16.10
2022-09-04T02:18:37.389Z,16.10
2022-09-04T02:19:24.485Z,16.10
2022-09-04T02:20:06.717Z,16.10
2022-09-04T02:20:43.952Z,16.10
2022-09-04T02:21:24.035Z,16.10
2022-09-04T02:22:03.965Z,16.10
2022-09-04T02:22:44.919Z,16.20
2022-09-04T02:23:26.372Z,16.10
2022-09-04T02:24:09.039Z,16.20
2022-09-04T02:24:50.482Z,16.20
2022-09-04T02:25:29.565Z,16.20
2022-09-04T02:26:09.097Z,16.40
2022-09-04T02:26:48.372Z,16.40
2022-09-04T02:27:29.228Z,16.30
2022-09-04T02:28:16.336Z,16.30
2022-09-04T02:28:58.425Z,16.30
2022-09-04T02:29:39.524Z,16.30
2022-09-04T02:30:13.918Z,16.30
2022-09-04T02:30:54.220Z,16.30
2022-09-04T02:31:35.062Z,16.30
2022-09-04T02:32:18.349Z,16.30
2022-09-04T02:32:59.437Z,16.30
2022-09-04T02:33:37.332Z,16.30
2022-09-04T02:34:13.065Z,16.30
2022-09-04T02:34:55.448Z,16.30
2022-09-04T02:35:34.184Z,16.30
2022-09-04T02:36:12.078Z,16.40
2022-09-04T02:36:50.514Z,16.40
2022-09-04T02:37:29.050Z,16.30
2022-09-04T02:38:11.979Z,16.40
2022-09-04T02:38:56.291Z,16.30
2022-09-04T02:39:37.456Z,16.40
2022-09-04T02:40:18.308Z,16.40
2022-09-04T02:40:56.052Z,16.30
2022-09-04T02:41:38.709Z,16.30
2022-09-04T02:42:19.426Z,16.40
2022-09-04T02:43:07.434Z,16.30
2022-09-04T02:43:58.231Z,16.40
2022-09-04T02:44:41.418Z,16.40
2022-09-04T02:45:23.160Z,16.40
2022-09-04T02:46:01.621Z,16.40
2022-09-04T02:46:46.222Z,16.40
2022-09-04T02:47:29.047Z,16.40
2022-09-04T02:48:08.805Z,16.50
2022-09-04T02:48:57.516Z,16.50
2022-09-04T02:49:37.654Z,16.40
2022-09-04T02:50:21.190Z,16.40
2022-09-04T02:51:06.395Z,16.40
2022-09-04T02:51:53.087Z,16.40
2022-09-04T02:52:45.781Z,16.50
2022-09-04T02:53:28.761Z,16.40
2022-09-04T02:54:06.883Z,16.40
2022-09-04T02:54:58.726Z,16.40
2022-09-04T02:56:01.748Z,16.40
2022-09-04T02:56:45.567Z,16.40
2022-09-04T02:57:28.062Z,16.40
2022-09-04T02:58:15.330Z,16.40
2022-09-04T02:58:58.700Z,16.40
2022-09-04T02:59:42.947Z,16.40
2022-09-04T03:00:21.024Z,16.40
2022-09-04T03:01:03.775Z,16.40
2022-09-04T03:01:46.505Z,16.40
2022-09-04T03:02:28.505Z,16.40
2022-09-04T03:03:07.588Z,16.40
2022-09-04T03:03:47.906Z,16.40
2022-09-04T03:04:27.912Z,16.40
2022-09-04T03:05:07.140Z,16.30
2022-09-04T03:05:46.410Z,16.40
2022-09-04T03:06:24.441Z,16.30
2022-09-04T03:07:04.883Z,16.30
2022-09-04T03:07:40.065Z,16.40
2022-09-04T03:08:17.762Z,16.30
2022-09-04T03:08:55.364Z,16.30
2022-09-04T03:09:34.036Z,16.30
2022-09-04T03:10:12.523Z,16.40
2022-09-04T03:10:48.202Z,16.30
2022-09-04T03:11:28.712Z,16.30
2022-09-04T03:12:05.761Z,16.30
2022-09-04T03:12:42.853Z,16.40
2022-09-04T03:13:24.752Z,16.30
2022-09-04T03:14:03.442Z,16.30
2022-09-04T03:14:43.810Z,16.30
2022-09-04T03:15:27.245Z,16.30
2022-09-04T03:16:07.148Z,16.30
2022-09-04T03:16:45.238Z,16.30
2022-09-04T03:17:23.409Z,16.30
2022-09-04T03:18:03.714Z,16.30
2022-09-04T03:18:58.990Z,16.30
2022-09-04T03:19:36.692Z,16.30
2022-09-04T03:20:16.027Z,16.30
2022-09-04T03:20:54.525Z,16.30
2022-09-04T03:21:35.092Z,16.30
2022-09-04T03:22:14.428Z,16.30
2022-09-04T03:22:53.514Z,16.20
2022-09-04T03:23:34.184Z,16.20
2022-09-04T03:24:11.269Z,16.20
2022-09-04T03:24:59.737Z,16.20
2022-09-04T03:25:54.279Z,16.20
2022-09-04T03:26:31.065Z,16.20
2022-09-04T03:27:06.704Z,16.10
2022-09-04T03:27:38.704Z,16.10
2022-09-04T03:28:21.428Z,16.20
2022-09-04T03:29:05.976Z,16.20
2022-09-04T03:29:46.016Z,16.20
2022-09-04T03:30:18.501Z,16.10
2022-09-04T03:30:51.541Z,16.20
2022-09-04T03:31:31.407Z,16.20
2022-09-04T03:32:16.372Z,16.20
2022-09-04T03:32:55.126Z,16.20
2022-09-04T03:33:34.361Z,16.20
2022-09-04T03:34:16.134Z,16.20
2022-09-04T03:34:54.112Z,16.20
2022-09-04T03:35:32.944Z,16.20
2022-09-04T03:36:14.909Z,16.20
2022-09-04T03:36:57.741Z,16.20
2022-09-04T03:37:44.844Z,16.20
2022-09-04T03:38:23.294Z,16.20
2022-09-04T03:39:04.502Z,16.20
2022-09-04T03:39:48.493Z,16.10
2022-09-04T03:40:35.305Z,16.10
2022-09-04T03:41:15.821Z,16.10
2022-09-04T03:41:57.206Z,16.10
2022-09-04T03:42:39.738Z,16.10
2022-09-04T03:43:48.317Z,16.10
2022-09-04T03:44:30.278Z,16.10
2022-09-04T03:45:14.401Z,16.10
2022-09-04T03:45:55.856Z,16.10
2022-09-04T03:46:43.324Z,16.10
2022-09-04T03:47:24.005Z,16.10
2022-09-04T03:48:12.157Z,16.10
2022-09-04T03:49:00.237Z,16.00
2022-09-04T03:49:44.412Z,16.00
2022-09-04T03:50:24.278Z,16.00
2022-09-04T03:51:00.344Z,16.00
2022-09-04T03:51:43.555Z,16.00
2022-09-04T03:52:24.780Z,16.00
2022-09-04T03:53:05.748Z,16.00
2022-09-04T03:53:42.469Z,16.00
2022-09-04T03:54:29.497Z,16.00
2022-09-04T03:55:19.277Z,16.00
2022-09-04T03:56:23.505Z,16.00
2022-09-04T03:57:10.009Z,16.00
2022-09-04T03:57:53.698Z,15.90
2022-09-04T03:58:38.114Z,16.00
2022-09-04T03:59:17.186Z,15.90
2022-09-04T04:00:03.404Z,15.90
2022-09-04T04:00:47.323Z,15.80
2022-09-04T04:01:29.831Z,15.90
2022-09-04T04:02:09.506Z,15.90
2022-09-04T04:03:03.381Z,15.90
2022-09-04T04:03:53.913Z,15.90
2022-09-04T04:04:56.141Z,15.90
2022-09-04T04:05:41.051Z,15.90
2022-09-04T04:06:24.263Z,15.90
2022-09-04T04:07:08.341Z,15.90
2022-09-04T04:07:50.086Z,16.10
2022-09-04T04:08:56.557Z,15.90
2022-09-04T04:09:52.048Z,15.90
2022-09-04T04:10:33.368Z,15.90
2022-09-04T04:11:25.029Z,15.90
2022-09-04T04:12:27.311Z,15.80
2022-09-04T04:13:28.142Z,15.80
2022-09-04T04:14:24.180Z,15.80
2022-09-04T04:15:06.574Z,15.80
2022-09-04T04:15:52.960Z,15.80
2022-09-04T04:16:42.691Z,15.80
2022-09-04T04:17:31.386Z,15.80
2022-09-04T04:18:34.808Z,15.80
2022-09-04T04:19:28.018Z,15.80
2022-09-04T04:20:15.694Z,15.80
2022-09-04T04:20:58.723Z,15.80
2022-09-04T04:21:38.665Z,15.80
2022-09-04T04:22:29.642Z,15.80
2022-09-04T04:23:36.476Z,15.80
2022-09-04T04:24:40.859Z,15.80
2022-09-04T04:25:34.478Z,15.80
2022-09-04T04:26:11.032Z,15.80
2022-09-04T04:26:57.101Z,15.80
2022-09-04T04:27:46.066Z,15.80
2022-09-04T04:28:37.261Z,15.80
2022-09-04T04:29:41.454Z,15.80
2022-09-04T04:30:16.763Z,15.80
2022-09-04T04:30:52.313Z,15.80
2022-09-04T04:31:34.446Z,15.80
2022-09-04T04:32:31.009Z,15.80
2022-09-04T04:33:33.980Z,15.80
2022-09-04T04:34:17.899Z,15.80
2022-09-04T04:35:03.351Z,15.80
2022-09-04T04:35:43.824Z,15.80
2022-09-04T04:36:25.837Z,15.80
2022-09-04T04:37:05.666Z,15.80
2022-09-04T04:37:51.637Z,15.80
2022-09-04T04:38:39.193Z,15.70
2022-09-04T04:39:29.479Z,15.80
2022-09-04T04:40:10.177Z,15.80
2022-09-04T04:41:09.882Z,15.80
2022-09-04T04:42:11.677Z,15.80
2022-09-04T04:42:50.045Z,15.80
2022-09-04T04:43:31.240Z,15.70
2022-09-04T04:44:13.919Z,15.70
2022-09-04T04:45:21.187Z,15.80
2022-09-04T04:46:03.665Z,15.70
2022-09-04T04:46:54.292Z,15.70
2022-09-04T04:47:42.489Z,15.70
2022-09-04T04:49:00.979Z,15.80
2022-09-04T04:49:56.180Z,15.80
2022-09-04T04:50:40.143Z,15.80
2022-09-04T04:51:31.301Z,15.80
2022-09-04T04:52:19.996Z,15.80
2022-09-04T04:53:02.997Z,15.80
2022-09-04T04:53:42.475Z,15.80
2022-09-04T04:54:26.257Z,15.80
2022-09-04T04:55:08.925Z,15.80
2022-09-04T04:55:49.516Z,15.80
2022-09-04T04:56:26.257Z,15.80
2022-09-04T04:57:08.964Z,15.80
2022-09-04T04:58:01.021Z,15.80
2022-09-04T04:58:51.212Z,15.80
2022-09-04T04:59:30.993Z,15.80
2022-09-04T05:00:09.061Z,15.70
2022-09-04T05:00:46.587Z,15.70
2022-09-04T05:01:30.783Z,15.70
2022-09-04T05:02:14.222Z,15.70
2022-09-04T05:03:04.557Z,15.70
2022-09-04T05:03:48.468Z,15.60
2022-09-04T05:04:32.880Z,15.60
2022-09-04T05:05:13.335Z,15.60
2022-09-04T05:05:57.648Z,15.70
2022-09-04T05:06:37.542Z,15.60
2022-09-04T05:07:19.479Z,15.60
2022-09-04T05:08:03.901Z,15.60
2022-09-04T05:08:44.911Z,15.60
2022-09-04T05:09:26.786Z,15.60
2022-09-04T05:10:06.983Z,15.60
2022-09-04T05:10:45.553Z,15.60
2022-09-04T05:11:26.656Z,15.60
2022-09-04T05:12:06.418Z,15.60
2022-09-04T05:12:55.492Z,15.60
2022-09-04T05:13:33.145Z,15.70
2022-09-04T05:14:18.190Z,15.60
2022-09-04T05:14:55.803Z,15.70
2022-09-04T05:15:52.936Z,15.60
2022-09-04T05:16:37.759Z,15.70
2022-09-04T05:17:21.390Z,15.70
2022-09-04T05:17:58.463Z,15.70
2022-09-04T05:18:35.331Z,15.70
2022-09-04T05:19:16.514Z,15.70
2022-09-04T05:19:54.724Z,15.70
2022-09-04T05:20:39.857Z,15.80
2022-09-04T05:21:22.370Z,15.80
2022-09-04T05:22:04.523Z,15.80
2022-09-04T05:22:40.553Z,15.80
2022-09-04T05:23:32.983Z,15.80
2022-09-04T05:24:10.836Z,15.80
2022-09-04T05:24:56.134Z,15.80
2022-09-04T05:25:38.005Z,15.80
2022-09-04T05:26:16.980Z,15.80
2022-09-04T05:26:55.482Z,15.80
2022-09-04T05:27:43.904Z,15.80
2022-09-04T05:28:26.277Z,15.90
2022-09-04T05:29:04.743Z,15.90
2022-09-04T05:29:51.185Z,15.90
2022-09-04T05:30:33.695Z,15.90
2022-09-04T05:31:16.628Z,15.90
2022-09-04T05:31:54.819Z,15.80
2022-09-04T05:32:32.914Z,15.90
2022-09-04T05:33:15.204Z,15.90
2022-09-04T05:33:57.286Z,15.90
2022-09-04T05:34:36.747Z,15.90
2022-09-04T05:35:17.825Z,15.90
2022-09-04T05:35:56.813Z,15.90
2022-09-04T05:36:40.988Z,15.90
2022-09-04T05:37:18.546Z,16.00
2022-09-04T05:37:58.349Z,16.00
2022-09-04T05:38:38.255Z,15.90
2022-09-04T05:39:18.961Z,16.00
2022-09-04T05:40:03.160Z,16.00
2022-09-04T05:40:49.741Z,16.00
2022-09-04T05:41:36.031Z,16.00
2022-09-04T05:42:36.860Z,16.00
2022-09-04T05:43:20.530Z,16.00
2022-09-04T05:44:05.741Z,15.90
2022-09-04T05:44:51.966Z,15.90
2022-09-04T05:45:30.064Z,15.90
2022-09-04T05:46:10.004Z,15.90
2022-09-04T05:46:52.361Z,15.90
2022-09-04T05:47:36.227Z,15.90
2022-09-04T05:48:20.026Z,15.90
2022-09-04T05:49:01.448Z,15.90
2022-09-04T05:49:56.207Z,15.80
2022-09-04T05:50:45.268Z,15.90
2022-09-04T05:51:46.896Z,15.90
2022-09-04T05:52:48.889Z,16.00
2022-09-04T05:53:39.026Z,16.00
2022-09-04T05:54:30.012Z,16.00
2022-09-04T05:55:25.724Z,15.90
2022-09-04T05:56:20.439Z,15.90
2022-09-04T05:57:11.821Z,15.90
2022-09-04T05:57:58.787Z,16.00
2022-09-04T05:58:54.313Z,16.00
2022-09-04T05:59:54.676Z,15.90
2022-09-04T06:00:31.693Z,16.00
2022-09-04T06:01:23.065Z,16.00
2022-09-04T06:02:08.462Z,16.00
2022-09-04T06:03:20.882Z,16.00
2022-09-04T06:04:24.601Z,16.00
2022-09-04T06:05:14.033Z,16.00
2022-09-04T06:05:58.596Z,16.00
2022-09-04T06:06:38.889Z,16.00
2022-09-04T06:07:16.258Z,16.00
2022-09-04T06:08:00.368Z,16.00
2022-09-04T06:08:53.031Z,16.00
2022-09-04T06:09:35.440Z,16.00
2022-09-04T06:10:13.982Z,16.00
2022-09-04T06:11:00.133Z,16.00
2022-09-04T06:11:45.810Z,16.00
2022-09-04T06:12:47.322Z,16.00
2022-09-04T06:13:37.864Z,16.00
2022-09-04T06:14:34.031Z,16.00
2022-09-04T06:15:32.840Z,16.00
2022-09-04T06:16:28.548Z,16.00
2022-09-04T06:17:18.695Z,16.00
2022-09-04T06:18:01.785Z,16.00
2022-09-04T06:18:49.296Z,16.00
2022-09-04T06:19:53.348Z,16.00
2022-09-04T06:20:37.437Z,16.00
2022-09-04T06:21:45.556Z,16.00
2022-09-04T06:22:35.574Z,16.00
2022-09-04T06:23:31.394Z,16.00
2022-09-04T06:24:26.602Z,16.00
2022-09-04T06:25:13.556Z,16.00
2022-09-04T06:26:13.170Z,16.00
2022-09-04T06:27:22.216Z,16.10
2022-09-04T06:28:12.897Z,16.00
2022-09-04T06:29:21.061Z,16.10
2022-09-04T06:30:07.791Z,16.10
2022-09-04T06:30:48.626Z,16.10
2022-09-04T06:31:49.439Z,16.10
2022-09-04T06:32:52.446Z,16.10
2022-09-04T06:33:35.181Z,16.20
2022-09-04T06:34:21.685Z,16.20
2022-09-04T06:35:10.072Z,16.20
2022-09-04T06:36:12.960Z,16.20
2022-09-04T06:37:03.389Z,16.30
2022-09-04T06:37:45.048Z,16.30
2022-09-04T06:38:32.828Z,16.30
2022-09-04T06:39:25.823Z,16.40
2022-09-04T06:40:09.978Z,16.40
2022-09-04T06:40:57.377Z,16.50
2022-09-04T06:41:48.786Z,16.50
2022-09-04T06:42:35.761Z,16.50
2022-09-04T06:43:20.780Z,16.50
2022-09-04T06:44:03.718Z,16.50
2022-09-04T06:44:55.509Z,16.50
2022-09-04T06:45:42.906Z,16.60
2022-09-04T06:46:22.158Z,16.60
2022-09-04T06:47:10.687Z,16.60
2022-09-04T06:48:02.983Z,16.60
2022-09-04T06:48:47.913Z,16.70
2022-09-04T06:49:34.792Z,16.70
2022-09-04T06:50:21.003Z,16.70
2022-09-04T06:51:01.080Z,16.70
2022-09-04T06:51:45.369Z,16.80
2022-09-04T06:52:25.241Z,16.80
2022-09-04T06:53:11.177Z,16.80
2022-09-04T06:53:52.312Z,16.80
2022-09-04T06:54:36.948Z,16.90
2022-09-04T06:55:14.101Z,16.90
2022-09-04T06:55:58.162Z,16.90
2022-09-04T06:56:45.022Z,16.90
2022-09-04T06:57:43.289Z,17.00
2022-09-04T06:58:38.867Z,17.00
2022-09-04T06:59:21.684Z,17.00
2022-09-04T07:00:06.308Z,17.00
2022-09-04T07:00:44.469Z,17.00
2022-09-04T07:01:19.856Z,17.10
2022-09-04T07:02:07.485Z,17.10
2022-09-04T07:03:10.841Z,17.10
2022-09-04T07:03:54.197Z,17.10
2022-09-04T07:04:39.479Z,17.10
2022-09-04T07:05:20.509Z,17.20
2022-09-04T07:05:58.569Z,17.20
2022-09-04T07:06:44.146Z,17.20
2022-09-04T07:07:24.965Z,17.30
2022-09-04T07:08:07.740Z,17.20
2022-09-04T07:08:54.705Z,17.30
2022-09-04T07:09:31.572Z,17.30
2022-09-04T07:10:10.490Z,17.30
2022-09-04T07:10:47.140Z,17.40
2022-09-04T07:11:29.771Z,17.30
2022-09-04T07:12:37.273Z,17.30
2022-09-04T07:13:47.885Z,17.30
2022-09-04T07:14:42.512Z,17.30
2022-09-04T07:15:45.469Z,17.40
2022-09-04T07:16:41.688Z,17.40
2022-09-04T07:17:24.565Z,17.40
2022-09-04T07:18:06.464Z,17.40
2022-09-04T07:19:01.397Z,17.40
2022-09-04T07:19:52.118Z,17.40
2022-09-04T07:20:34.477Z,17.40
2022-09-04T07:21:16.325Z,17.40
2022-09-04T07:22:01.457Z,17.40
2022-09-04T07:23:03.642Z,17.50
2022-09-04T07:23:45.005Z,17.50
2022-09-04T07:24:49.787Z,17.60
2022-09-04T07:25:26.249Z,17.60
2022-09-04T07:26:07.984Z,17.60
2022-09-04T07:26:49.141Z,17.60
2022-09-04T07:27:36.163Z,17.70
2022-09-04T07:28:20.216Z,17.60
2022-09-04T07:29:05.753Z,17.70
2022-09-04T07:29:41.608Z,17.70
2022-09-04T07:30:17.188Z,17.70
2022-09-04T07:30:53.868Z,17.70
2022-09-04T07:31:34.676Z,17.70
2022-09-04T07:32:11.769Z,17.70
2022-09-04T07:32:54.407Z,17.70
2022-09-04T07:33:35.638Z,17.80
2022-09-04T07:34:17.431Z,17.80
2022-09-04T07:34:56.081Z,17.80
2022-09-04T07:35:36.216Z,17.90
2022-09-04T07:36:14.061Z,17.90
2022-09-04T07:36:55.196Z,17.90
2022-09-04T07:37:33.564Z,18.00
2022-09-04T07:38:17.068Z,18.00
2022-09-04T07:38:56.154Z,18.00
2022-09-04T07:39:36.987Z,18.00
2022-09-04T07:40:14.794Z,18.00
2022-09-04T07:40:53.492Z,18.00
2022-09-04T07:41:33.550Z,18.00
2022-09-04T07:42:12.569Z,18.10
2022-09-04T07:42:50.084Z,18.10
2022-09-04T07:43:28.807Z,18.10
2022-09-04T07:44:06.671Z,18.10
2022-09-04T07:44:44.822Z,18.20
2022-09-04T07:45:29.941Z,18.20
2022-09-04T07:46:10.254Z,18.20
2022-09-04T07:46:48.548Z,18.20
2022-09-04T07:47:30.354Z,18.20
2022-09-04T07:48:15.462Z,18.30
2022-09-04T07:48:54.225Z,18.30
2022-09-04T07:49:33.116Z,18.40
2022-09-04T07:50:10.461Z,18.30
2022-09-04T07:50:55.347Z,18.30
2022-09-04T07:51:37.764Z,18.40
2022-09-04T07:52:19.908Z,18.40
2022-09-04T07:53:05.527Z,18.40
2022-09-04T07:54:07.188Z,18.50
2022-09-04T07:54:59.481Z,18.50
2022-09-04T07:55:41.277Z,18.50
2022-09-04T07:56:21.058Z,18.50
2022-09-04T07:57:16.236Z,18.50
2022-09-04T07:58:11.862Z,18.60
2022-09-04T07:59:24.175Z,18.60
2022-09-04T08:00:06.189Z,18.70
2022-09-04T08:00:50.497Z,18.70
2022-09-04T08:01:40.449Z,18.80
2022-09-04T08:02:31.567Z,18.80
2022-09-04T08:03:32.307Z,18.80
2022-09-04T08:04:29.373Z,18.70
2022-09-04T08:05:15.406Z,18.70
2022-09-04T08:05:54.030Z,18.80
2022-09-04T08:06:36.102Z,18.80
2022-09-04T08:07:16.100Z,18.80
2022-09-04T08:08:16.635Z,18.80
2022-09-04T08:09:12.572Z,18.90
2022-09-04T08:10:14.674Z,18.90
2022-09-04T08:11:14.581Z,19.00
2022-09-04T08:12:14.962Z,19.00
2022-09-04T08:13:26.642Z,19.00
2022-09-04T08:14:22.038Z,19.00
2022-09-04T08:14:57.169Z,19.00
2022-09-04T08:15:42.920Z,19.10
2022-09-04T08:16:28.488Z,19.10
2022-09-04T08:17:27.693Z,19.10
2022-09-04T08:18:27.473Z,19.20
2022-09-04T08:19:11.255Z,19.20
2022-09-04T08:19:56.904Z,19.20
2022-09-04T08:20:46.742Z,19.30
2022-09-04T08:21:26.926Z,19.20
2022-09-04T08:22:00.004Z,19.30
2022-09-04T08:22:45.482Z,19.20
2022-09-04T08:23:57.344Z,19.40
2022-09-04T08:24:55.729Z,19.30
2022-09-04T08:25:30.778Z,19.30
2022-09-04T08:26:14.392Z,19.30
2022-09-04T08:26:58.583Z,19.40
2022-09-04T08:27:51.518Z,19.40
2022-09-04T08:28:37.257Z,19.40
2022-09-04T08:29:40.160Z,19.40
2022-09-04T08:30:14.587Z,19.40
2022-09-04T08:30:55.283Z,19.50
2022-09-04T08:31:31.991Z,19.50
2022-09-04T08:32:15.154Z,19.50
2022-09-04T08:33:32.947Z,19.50
2022-09-04T08:34:29.227Z,19.50
2022-09-04T08:35:17.989Z,19.50
2022-09-04T08:35:57.436Z,19.60
2022-09-04T08:36:39.156Z,19.60
2022-09-04T08:37:22.749Z,19.60
2022-09-04T08:38:11.559Z,19.60
2022-09-04T08:39:02.269Z,19.60
2022-09-04T08:39:47.145Z,19.60
2022-09-04T08:40:52.248Z,19.60
2022-09-04T08:41:55.390Z,19.60
2022-09-04T08:42:57.176Z,19.60
2022-09-04T08:43:47.747Z,19.70
2022-09-04T08:45:07.680Z,19.70
2022-09-04T08:46:07.997Z,19.70
2022-09-04T08:47:17.694Z,19.80
2022-09-04T08:48:26.977Z,19.70
2022-09-04T08:49:51.977Z,19.80
2022-09-04T08:51:07.333Z,19.80
2022-09-04T08:52:08.409Z,19.80
2022-09-04T08:53:33.384Z,19.80
2022-09-04T08:54:36.937Z,19.90
2022-09-04T08:55:38.105Z,19.90
2022-09-04T08:56:22.041Z,19.90
2022-09-04T08:57:18.387Z,19.90
2022-09-04T08:58:18.034Z,20.00
2022-09-04T08:59:31.832Z,20.00
2022-09-04T09:00:09.759Z,20.00
2022-09-04T09:01:01.261Z,20.00
2022-09-04T09:01:56.426Z,20.10
2022-09-04T09:03:01.187Z,20.20
2022-09-04T09:04:05.512Z,20.10
2022-09-04T09:05:10.898Z,20.10
2022-09-04T09:06:27.249Z,20.10
2022-09-04T09:07:26.509Z,20.10
2022-09-04T09:08:31.691Z,20.20
2022-09-04T09:09:34.090Z,20.20
2022-09-04T09:10:42.933Z,20.20
2022-09-04T09:11:43.364Z,20.20
2022-09-04T09:13:04.120Z,20.20
2022-09-04T09:14:11.150Z,20.30
2022-09-04T09:15:09.834Z,20.30
2022-09-04T09:16:21.837Z,20.40
2022-09-04T09:17:12.861Z,20.40
2022-09-04T09:18:00.014Z,20.50
2022-09-04T09:18:40.607Z,20.50
2022-09-04T09:19:37.443Z,20.50
2022-09-04T09:20:26.973Z,20.50
2022-09-04T09:21:08.035Z,20.50
2022-09-04T09:21:49.179Z,20.50
2022-09-04T09:22:37.800Z,20.50
2022-09-04T09:23:18.288Z,20.50
2022-09-04T09:24:35.661Z,20.60
2022-09-04T09:25:16.766Z,20.60
2022-09-04T09:25:56.484Z,20.50
2022-09-04T09:26:29.685Z,20.70
2022-09-04T09:27:23.978Z,20.70
2022-09-04T09:28:30.313Z,20.70
2022-09-04T09:29:38.625Z,20.70
2022-09-04T09:30:16.591Z,20.70
2022-09-04T09:31:43.505Z,20.70
2022-09-04T09:32:52.129Z,20.70
2022-09-04T09:33:48.552Z,20.70
2022-09-04T09:34:57.089Z,20.70
2022-09-04T09:36:08.038Z,20.80
2022-09-04T09:37:19.276Z,20.80
2022-09-04T09:38:16.982Z,20.90
2022-09-04T09:39:15.030Z,21.00
2022-09-04T09:40:26.000Z,21.00
2022-09-04T09:41:43.530Z,21.00
2022-09-04T09:43:02.932Z,21.00
2022-09-04T09:44:08.341Z,21.00
2022-09-04T09:45:15.043Z,21.10
2022-09-04T09:46:15.010Z,21.10
2022-09-04T09:47:33.997Z,21.10
2022-09-04T09:48:33.610Z,21.10
2022-09-04T09:49:35.042Z,21.30
2022-09-04T09:50:45.421Z,21.20
2022-09-04T09:51:46.250Z,21.30
2022-09-04T09:52:41.153Z,21.30
2022-09-04T09:54:05.026Z,21.30
2022-09-04T09:55:13.084Z,21.40
2022-09-04T09:56:16.101Z,21.40
2022-09-04T09:57:33.493Z,21.50
2022-09-04T09:58:44.942Z,21.50
2022-09-04T09:59:51.714Z,21.50
2022-09-04T10:00:27.493Z,21.40
2022-09-04T10:01:08.811Z,21.40